createdAt,value
2018-01-28T00:00:10.129Z,82.18
2018-01-28T00:02:37.649Z,81.51
2018-01-28T00:05:05.183Z,81.45
2018-01-28T00:07:32.693Z,81.03
2018-01-28T00:10:00.226Z,81.15
2018-01-28T00:12:27.758Z,80.62
2018-01-28T00:14:55.302Z,80.92
2018-01-28T00:17:22.836Z,80.60
2018-01-28T00:19:50.390Z,80.14
2018-01-28T00:22:17.991Z,80.20
2018-01-28T00:24:45.520Z,79.33
2018-01-28T00:27:13.043Z,79.59
2018-01-28T00:29:40.569Z,79.65
2018-01-28T00:32:08.104Z,79.72
2018-01-28T00:34:35.629Z,78.94
2018-01-28T00:37:03.262Z,78.85
2018-01-28T00:39:30.777Z,79.17
2018-01-28T00:41:58.376Z,79.27
2018-01-28T00:44:25.904Z,79.30
2018-01-28T00:46:53.428Z,79.16
2018-01-28T00:49:21.054Z,78.68
2018-01-28T00:51:48.575Z,78.79
2018-01-28T00:54:16.108Z,78.88
2018-01-28T00:56:43.630Z,78.85
2018-01-28T00:59:11.197Z,78.88
2018-01-28T01:01:38.718Z,78.79
2018-01-28T01:04:06.245Z,79.10
2018-01-28T01:06:33.878Z,77.97
2018-01-28T01:09:01.449Z,78.07
2018-01-28T01:11:28.981Z,78.79
2018-01-28T01:13:56.515Z,78.04
2018-01-28T01:16:24.077Z,78.25
2018-01-28T01:18:52.506Z,77.97
2018-01-28T01:21:20.037Z,78.00
2018-01-28T01:23:47.625Z,77.79
2018-01-28T01:26:15.269Z,78.01
2018-01-28T01:28:42.804Z,78.19
2018-01-28T01:31:10.333Z,78.56
2018-01-28T01:33:37.892Z,78.21
2018-01-28T01:36:05.412Z,77.93
2018-01-28T01:38:32.937Z,77.92
2018-01-28T01:41:00.502Z,77.84
2018-01-28T01:43:28.029Z,77.43
2018-01-28T01:45:55.536Z,77.37
2018-01-28T01:48:23.112Z,77.80
2018-01-28T01:50:50.670Z,78.57
2018-01-28T01:53:18.249Z,77.45
2018-01-28T01:55:45.765Z,77.45
2018-01-28T01:58:13.278Z,77.76
2018-01-28T02:00:40.804Z,77.85
2018-01-28T02:03:08.316Z,77.70
2018-01-28T02:05:35.836Z,77.35
2018-01-28T02:08:03.498Z,77.29
2018-01-28T02:10:31.026Z,76.83
2018-01-28T02:12:58.541Z,77.17
2018-01-28T02:15:26.138Z,77.11
2018-01-28T02:17:53.681Z,77.02
2018-01-28T02:20:21.196Z,76.61
2018-01-28T02:22:48.722Z,77.10
2018-01-28T02:25:16.306Z,77.16
2018-01-28T02:27:43.834Z,76.68
2018-01-28T02:30:11.364Z,76.67
2018-01-28T02:32:38.991Z,77.30
2018-01-28T03:12:01.897Z,75.76
2018-01-28T03:14:29.424Z,76.18
2018-01-28T03:16:57.017Z,75.87
2018-01-28T03:19:24.530Z,75.70
2018-01-28T03:21:52.120Z,75.57
2018-01-28T03:24:19.629Z,75.12
2018-01-28T03:26:47.169Z,75.02
2018-01-28T03:29:14.681Z,75.03
2018-01-28T03:31:42.244Z,75.42
2018-01-28T03:34:09.765Z,75.17
2018-01-28T03:36:37.299Z,76.22
2018-01-28T03:39:04.827Z,76.37
2018-01-28T03:41:32.413Z,76.42
2018-01-28T03:43:59.937Z,77.21
2018-01-28T03:46:27.454Z,77.02
2018-01-28T03:48:54.984Z,77.16
2018-01-28T03:51:22.514Z,77.50
2018-01-28T03:53:50.080Z,78.18
2018-01-28T03:56:17.594Z,78.94
2018-01-28T03:58:45.117Z,79.84
2018-01-28T04:01:12.636Z,80.45
2018-01-28T04:03:40.240Z,81.60
2018-01-28T04:06:07.803Z,81.76
2018-01-28T04:08:35.323Z,81.94
2018-01-28T04:11:02.855Z,82.10
2018-01-28T04:13:30.483Z,82.28
2018-01-28T04:15:58.008Z,82.36
2018-01-28T04:18:25.604Z,82.53
2018-01-28T04:20:53.129Z,82.67
2018-01-28T04:23:20.652Z,82.64
2018-01-28T04:25:48.170Z,83.01
2018-01-28T04:28:15.680Z,83.05
2018-01-28T04:30:43.197Z,83.55
2018-01-28T04:33:10.742Z,83.71
2018-01-28T04:35:38.278Z,84.25
2018-01-28T04:38:05.830Z,84.64
2018-01-28T04:40:33.361Z,85.02
2018-01-28T04:43:01.103Z,85.87
2018-01-28T04:45:28.632Z,85.98
2018-01-28T04:47:56.154Z,86.26
2018-01-28T04:50:23.680Z,86.39
2018-01-28T04:52:51.203Z,85.95
2018-01-28T04:55:18.788Z,86.27
2018-01-28T04:57:46.312Z,86.36
2018-01-28T05:00:13.829Z,86.52
2018-01-28T05:02:41.340Z,86.24
2018-01-28T05:05:08.858Z,86.16
2018-01-28T05:07:36.370Z,86.43
2018-01-28T05:10:03.894Z,86.27
2018-01-28T05:12:31.416Z,86.33
2018-01-28T05:14:58.942Z,86.12
2018-01-28T05:17:26.535Z,85.72
2018-01-28T05:19:54.054Z,85.78
2018-01-28T05:22:21.573Z,85.44
2018-01-28T05:24:49.132Z,85.37
2018-01-28T05:27:16.653Z,85.64
2018-01-28T05:29:44.231Z,85.27
2018-01-28T05:32:11.745Z,85.23
2018-01-28T05:34:39.260Z,85.32
2018-01-28T05:37:06.836Z,85.25
2018-01-28T05:39:34.364Z,85.09
2018-01-28T05:42:01.933Z,84.94
2018-01-28T05:44:29.444Z,85.03
2018-01-28T05:46:56.993Z,85.13
2018-01-28T05:49:24.608Z,85.05
2018-01-28T05:51:52.144Z,85.25
2018-01-28T05:54:19.757Z,85.53
2018-01-28T05:56:47.288Z,85.85
2018-01-28T05:59:14.867Z,86.04
2018-01-28T06:01:42.601Z,86.34
2018-01-28T06:04:10.281Z,86.88
2018-01-28T06:06:38.178Z,87.03
2018-01-28T06:09:05.729Z,87.45
2018-01-28T06:11:33.278Z,87.70
2018-01-28T06:14:00.793Z,88.14
2018-01-28T06:16:28.319Z,88.66
2018-01-28T06:18:55.843Z,88.58
2018-01-28T06:21:23.416Z,89.38
2018-01-28T06:23:50.932Z,89.29
2018-01-28T06:26:18.532Z,89.80
2018-01-28T06:28:46.054Z,89.61
2018-01-28T06:31:13.636Z,90.04
2018-01-28T06:33:41.204Z,90.01
2018-01-28T06:36:08.773Z,90.22
2018-01-28T06:38:36.293Z,90.38
2018-01-28T06:41:03.809Z,90.39
2018-01-28T06:43:31.334Z,90.71
2018-01-28T06:45:58.857Z,90.66
2018-01-28T06:48:26.385Z,90.83
2018-01-28T06:50:53.902Z,90.62
2018-01-28T06:53:21.478Z,91.00
2018-01-28T06:55:48.994Z,90.72
2018-01-28T06:58:16.583Z,90.28
2018-01-28T07:00:44.130Z,90.59
2018-01-28T07:03:11.654Z,90.56
2018-01-28T07:05:39.276Z,90.60
2018-01-28T07:08:06.837Z,90.66
2018-01-28T07:10:34.394Z,90.59
2018-01-28T07:13:02.604Z,91.14
2018-01-28T07:15:30.234Z,90.90
2018-01-28T07:17:57.746Z,91.09
2018-01-28T07:20:25.270Z,90.94
2018-01-28T07:22:52.796Z,91.02
2018-01-28T07:25:20.312Z,90.80
2018-01-28T07:27:47.922Z,91.29
2018-01-28T07:30:15.423Z,91.08
2018-01-28T07:32:43.015Z,91.21
2018-01-28T07:35:10.538Z,91.37
2018-01-28T07:37:38.053Z,91.37
2018-01-28T07:40:05.553Z,91.91
2018-01-28T07:42:33.071Z,91.74
2018-01-28T07:45:00.598Z,91.46
2018-01-28T07:47:28.125Z,91.46
2018-01-28T07:49:55.652Z,91.70
2018-01-28T07:52:23.213Z,91.45
2018-01-28T07:54:50.723Z,91.20
2018-01-28T07:57:18.237Z,91.27
2018-01-28T07:59:45.767Z,91.26
2018-01-28T08:02:13.289Z,90.98
2018-01-28T08:04:40.846Z,91.17
2018-01-28T08:07:08.363Z,91.23
2018-01-28T08:09:36.263Z,91.10
2018-01-28T08:12:16.637Z,90.87
2018-01-28T08:14:44.164Z,90.49
2018-01-28T08:17:11.682Z,90.30
2018-01-28T08:19:39.215Z,89.97
2018-01-28T08:22:06.729Z,89.88
2018-01-28T08:24:34.234Z,90.01
2018-01-28T08:27:06.296Z,89.90
2018-01-28T08:29:34.813Z,90.04
2018-01-28T08:32:02.321Z,90.17
2018-01-28T08:34:29.836Z,90.77
2018-01-28T08:36:57.388Z,91.03
2018-01-28T08:39:24.941Z,91.16
2018-01-28T08:41:52.456Z,91.14
2018-01-28T08:44:19.972Z,90.91
2018-01-28T08:46:47.490Z,90.86
2018-01-28T08:49:15.006Z,90.56
2018-01-28T08:51:42.525Z,90.55
2018-01-28T08:54:10.043Z,90.53
2018-01-28T08:56:37.560Z,90.43
2018-01-28T08:59:05.080Z,90.18
2018-01-28T09:01:32.598Z,90.17
2018-01-28T09:04:00.176Z,89.76
2018-01-28T09:06:27.728Z,89.57
2018-01-28T09:08:55.242Z,89.16
2018-01-28T09:11:22.760Z,88.79
2018-01-28T09:13:50.271Z,88.63
2018-01-28T09:16:17.797Z,88.50
2018-01-28T09:18:45.440Z,87.95
2018-01-28T09:21:13.018Z,87.13
2018-01-28T09:23:40.661Z,86.37
2018-01-28T09:26:08.174Z,85.10
2018-01-28T09:28:37.727Z,85.27
2018-01-28T09:31:05.245Z,84.61
2018-01-28T09:33:32.843Z,83.29
2018-01-28T09:36:00.386Z,82.33
2018-01-28T09:38:27.970Z,81.57
2018-01-28T09:40:55.498Z,82.09
2018-01-28T09:43:23.068Z,81.70
2018-01-28T09:45:50.597Z,82.28
2018-01-28T09:48:18.141Z,80.90
2018-01-28T09:50:45.666Z,80.10
2018-01-28T09:53:13.441Z,80.42
2018-01-28T09:55:40.953Z,79.55
2018-01-28T09:58:08.549Z,79.68
2018-01-28T10:00:36.069Z,79.45
2018-01-28T10:03:03.600Z,79.83
2018-01-28T10:05:31.130Z,78.87
2018-01-28T10:07:58.687Z,77.76
2018-01-28T10:10:26.218Z,79.86
2018-01-28T10:12:53.779Z,78.64
2018-01-28T10:15:21.374Z,77.72
2018-01-28T10:17:48.894Z,78.71
2018-01-28T10:20:16.419Z,78.63
2018-01-28T10:22:43.954Z,78.46
2018-01-28T10:25:11.485Z,78.79
2018-01-28T10:27:39.021Z,78.80
2018-01-28T10:30:06.565Z,77.27
2018-01-28T10:32:34.094Z,78.57
2018-01-28T10:35:01.609Z,78.18
2018-01-28T10:37:29.141Z,78.15
2018-01-28T10:39:56.660Z,78.14
2018-01-28T10:42:24.187Z,78.51
2018-01-28T10:44:51.717Z,79.10
2018-01-28T10:47:19.243Z,79.09
2018-01-28T10:49:46.807Z,78.97
2018-01-28T10:52:14.326Z,79.18
2018-01-28T10:54:41.877Z,79.68
2018-01-28T10:57:09.403Z,79.75
2018-01-28T10:59:36.916Z,79.14
2018-01-28T11:02:04.446Z,79.47
2018-01-28T11:04:32.013Z,79.95
2018-01-28T11:06:59.538Z,79.77
2018-01-28T11:09:27.176Z,79.60
2018-01-28T11:11:54.701Z,79.70
2018-01-28T11:14:22.227Z,79.77
2018-01-28T11:16:49.760Z,79.65
2018-01-28T11:19:17.272Z,79.29
2018-01-28T11:21:44.789Z,79.12
2018-01-28T11:24:12.305Z,79.14
2018-01-28T11:26:39.832Z,78.71
2018-01-28T11:29:07.348Z,79.01
2018-01-28T11:31:34.883Z,78.74
2018-01-28T11:34:02.401Z,78.87
2018-01-28T11:36:30.031Z,78.91
2018-01-28T11:38:57.556Z,79.18
2018-01-28T11:41:25.148Z,79.00
2018-01-28T11:43:52.712Z,79.03
2018-01-28T11:46:20.229Z,78.74
2018-01-28T11:48:47.831Z,78.43
2018-01-28T11:51:15.404Z,79.64
2018-01-28T11:53:42.904Z,81.66
2018-01-28T11:56:10.439Z,82.69
2018-01-28T11:58:37.949Z,83.60
2018-01-28T12:01:05.529Z,83.89
2018-01-28T12:03:33.055Z,84.25
2018-01-28T12:06:00.590Z,83.50
2018-01-28T12:08:28.209Z,83.83
2018-01-28T12:10:55.725Z,83.46
2018-01-28T12:13:23.249Z,83.92
2018-01-28T12:15:50.886Z,84.02
2018-01-28T12:18:18.401Z,83.87
2018-01-28T12:20:45.928Z,83.53
2018-01-28T12:23:13.444Z,83.82
2018-01-28T12:25:40.973Z,84.66
2018-01-28T12:28:08.579Z,85.14
2018-01-28T12:30:36.098Z,85.59
2018-01-28T12:33:03.631Z,85.56
2018-01-28T12:35:31.163Z,85.36
2018-01-28T12:37:58.676Z,85.12
2018-01-28T12:40:26.201Z,84.84
2018-01-28T12:42:53.745Z,85.58
2018-01-28T12:45:21.257Z,85.14
2018-01-28T12:47:48.817Z,85.31
2018-01-28T12:50:16.345Z,85.43
2018-01-28T12:52:43.865Z,85.14
2018-01-28T12:55:11.375Z,84.81
2018-01-28T12:57:38.891Z,85.11
2018-01-28T13:00:06.406Z,84.43
2018-01-28T13:02:33.956Z,84.32
2018-01-28T13:05:01.470Z,84.25
2018-01-28T13:07:28.984Z,84.14
2018-01-28T13:09:56.525Z,84.05
2018-01-28T13:12:24.054Z,83.40
2018-01-28T13:14:51.585Z,83.18
2018-01-28T13:17:19.162Z,83.33
2018-01-28T13:19:46.681Z,83.29
2018-01-28T13:22:14.220Z,82.91
2018-01-28T13:24:41.752Z,82.51
2018-01-28T13:27:09.266Z,82.50
2018-01-28T13:29:36.780Z,81.74
2018-01-28T13:32:04.341Z,81.21
2018-01-28T13:34:31.869Z,81.23
2018-01-28T13:36:59.392Z,80.25
2018-01-28T13:39:26.908Z,80.21
2018-01-28T13:41:54.416Z,78.60
2018-01-28T13:44:21.959Z,77.51
2018-01-28T13:46:49.481Z,78.02
2018-01-28T13:49:17.001Z,77.45
2018-01-28T13:51:44.602Z,76.23
2018-01-28T13:54:12.130Z,76.93
2018-01-28T13:56:39.690Z,75.79
2018-01-28T13:59:07.218Z,75.41
2018-01-28T14:01:34.873Z,75.63
2018-01-28T14:04:02.809Z,75.62
2018-01-28T14:06:30.348Z,74.85
2018-01-28T14:08:57.995Z,74.93
2018-01-28T14:11:25.526Z,75.52
2018-01-28T14:13:53.046Z,74.64
2018-01-28T14:16:20.608Z,73.97
2018-01-28T14:18:48.136Z,74.61
2018-01-28T14:21:15.688Z,75.43
2018-01-28T14:23:43.225Z,74.27
2018-01-28T14:26:10.759Z,74.12
2018-01-28T14:28:38.278Z,74.68
2018-01-28T14:31:06.335Z,75.32
2018-01-28T14:33:33.860Z,75.27
2018-01-28T14:36:01.405Z,75.34
2018-01-28T14:38:28.935Z,75.36
2018-01-28T14:40:56.455Z,75.73
2018-01-28T14:43:24.012Z,75.39
2018-01-28T14:45:51.548Z,75.59
2018-01-28T14:48:19.100Z,76.16
2018-01-28T14:50:46.621Z,75.66
2018-01-28T14:53:14.144Z,76.07
2018-01-28T14:55:41.679Z,76.03
2018-01-28T14:58:09.207Z,76.04
2018-01-28T15:00:36.728Z,76.66
2018-01-28T15:03:04.259Z,76.55
2018-01-28T15:05:31.785Z,76.64
2018-01-28T15:07:59.302Z,76.86
2018-01-28T15:10:26.831Z,76.99
2018-01-28T15:12:54.353Z,76.65
2018-01-28T15:15:21.951Z,76.91
2018-01-28T15:17:49.481Z,76.92
2018-01-28T15:20:16.999Z,77.23
2018-01-28T15:22:44.527Z,77.22
2018-01-28T15:25:12.059Z,77.58
2018-01-28T15:27:39.605Z,77.16
2018-01-28T15:30:07.146Z,77.56
2018-01-28T15:32:34.664Z,77.30
2018-01-28T15:35:02.194Z,77.42
2018-01-28T15:37:29.709Z,77.41
2018-01-28T15:39:57.257Z,77.76
2018-01-28T15:42:24.785Z,77.81
2018-01-28T15:44:52.369Z,77.75
2018-01-28T15:47:19.918Z,77.86
2018-01-28T15:49:47.448Z,78.00
2018-01-28T15:52:14.964Z,78.22
2018-01-28T15:54:42.481Z,78.31
2018-01-28T15:57:10.758Z,78.17
2018-01-28T15:59:38.297Z,78.38
2018-01-28T16:02:05.898Z,78.33
2018-01-28T16:04:33.423Z,78.28
2018-01-28T16:07:00.950Z,78.57
2018-01-28T16:09:28.486Z,78.74
2018-01-28T16:11:55.996Z,78.67
2018-01-28T16:14:23.516Z,78.63
2018-01-28T16:16:51.049Z,78.61
2018-01-28T16:19:18.567Z,78.80
2018-01-28T16:21:46.080Z,78.75
2018-01-28T16:24:13.653Z,79.05
2018-01-28T16:26:41.189Z,79.01
2018-01-28T16:29:08.707Z,78.98
2018-01-28T16:31:36.233Z,79.06
2018-01-28T16:34:03.753Z,78.85
2018-01-28T16:36:31.329Z,79.08
2018-01-28T16:38:58.865Z,78.95
2018-01-28T16:41:26.403Z,78.92
2018-01-28T16:43:53.926Z,78.95
2018-01-28T16:46:21.463Z,78.89
2018-01-28T16:48:48.993Z,79.02
2018-01-28T16:51:16.574Z,78.87
2018-01-28T16:53:44.146Z,78.79
2018-01-28T16:56:11.674Z,78.75
2018-01-28T16:58:39.253Z,79.77
2018-01-28T17:01:06.770Z,78.81
2018-01-28T17:03:34.294Z,78.49
2018-01-28T17:06:01.806Z,79.08
2018-01-28T17:08:29.328Z,78.93
2018-01-28T17:10:56.859Z,78.74
2018-01-28T17:13:24.386Z,78.39
2018-01-28T17:15:51.909Z,78.58
2018-01-28T17:18:19.446Z,78.01
2018-01-28T17:20:46.965Z,78.12
2018-01-28T17:23:14.545Z,78.50
2018-01-28T17:25:42.083Z,78.40
2018-01-28T17:28:09.601Z,77.81
2018-01-28T17:30:37.116Z,78.06
2018-01-28T17:33:04.637Z,78.14
2018-01-28T17:35:37.593Z,78.00
2018-01-28T17:38:05.301Z,77.56
2018-01-28T17:40:32.826Z,77.62
2018-01-28T17:43:00.364Z,78.08
2018-01-28T17:45:27.960Z,78.39
2018-01-28T17:47:55.482Z,78.94
2018-01-28T17:50:23.005Z,79.82
2018-01-28T17:52:50.532Z,79.98
2018-01-28T17:55:18.084Z,79.73
2018-01-28T17:57:45.616Z,80.10
2018-01-28T18:00:13.134Z,80.15
2018-01-28T18:02:40.668Z,79.85
2018-01-28T18:05:08.199Z,79.77
2018-01-28T18:07:35.720Z,79.74
2018-01-28T18:10:03.242Z,79.59
2018-01-28T18:12:30.763Z,79.70
2018-01-28T18:14:58.289Z,79.82
2018-01-28T18:17:25.902Z,80.12
2018-01-28T18:19:53.456Z,80.39
2018-01-28T18:22:20.996Z,80.61
2018-01-28T18:24:48.584Z,80.70
2018-01-28T18:27:16.112Z,80.45
2018-01-28T18:29:43.633Z,80.31
2018-01-28T18:32:11.257Z,80.10
2018-01-28T18:34:38.772Z,80.18
2018-01-28T18:37:06.293Z,80.79
2018-01-28T18:39:33.814Z,80.98
2018-01-28T18:42:01.398Z,81.58
2018-01-28T18:44:28.931Z,82.40
2018-01-28T18:46:56.468Z,83.17
2018-01-28T18:49:24.082Z,84.14
2018-01-28T18:51:51.754Z,84.76
2018-01-28T18:54:19.273Z,84.88
2018-01-28T18:56:46.856Z,86.15
2018-01-28T18:59:14.388Z,86.38
2018-01-28T19:01:41.917Z,86.82
2018-01-28T19:04:09.445Z,87.34
2018-01-28T19:06:36.968Z,87.68
2018-01-28T19:09:04.529Z,87.71
2018-01-28T19:11:32.112Z,88.32
2018-01-28T19:13:59.672Z,87.65
2018-01-28T19:16:27.208Z,87.92
2018-01-28T19:18:54.726Z,88.49
2018-01-28T19:21:22.245Z,89.03
2018-01-28T19:23:49.786Z,88.81
2018-01-28T19:26:17.296Z,89.21
2018-01-28T19:28:44.819Z,89.34
2018-01-28T19:31:12.362Z,89.40
2018-01-28T19:33:39.882Z,89.57
2018-01-28T19:36:07.411Z,89.39
2018-01-28T19:38:34.936Z,89.50
2018-01-28T19:41:02.466Z,89.42
2018-01-28T19:43:30.021Z,89.47
2018-01-28T19:45:57.551Z,89.97
2018-01-28T19:48:25.107Z,89.98
2018-01-28T19:50:52.628Z,89.80
2018-01-28T19:53:20.172Z,90.09
2018-01-28T19:55:47.717Z,89.55
2018-01-28T19:58:15.242Z,89.66
2018-01-28T20:00:42.769Z,89.45
2018-01-28T20:03:10.283Z,90.07
2018-01-28T20:05:37.819Z,89.89
2018-01-28T20:08:05.341Z,89.70
2018-01-28T20:10:32.874Z,90.04
2018-01-28T20:13:00.391Z,89.51
2018-01-28T20:15:28.011Z,89.68
2018-01-28T20:17:55.550Z,90.33
2018-01-28T20:20:23.173Z,89.63
2018-01-28T20:22:50.701Z,89.77
2018-01-28T20:25:18.230Z,89.85
2018-01-28T20:27:45.752Z,89.78
2018-01-28T20:30:13.281Z,90.27
2018-01-28T20:32:40.800Z,90.27
2018-01-28T20:35:08.323Z,90.28
2018-01-28T20:37:35.836Z,90.41
2018-01-28T20:40:03.405Z,90.45
2018-01-28T20:42:30.959Z,90.73
2018-01-28T20:44:58.546Z,90.82
2018-01-28T20:47:26.137Z,91.00
2018-01-28T20:49:53.813Z,91.39
2018-01-28T20:52:21.401Z,91.04
2018-01-28T20:57:21.606Z,91.26
2018-01-28T20:59:49.121Z,91.36
2018-01-28T21:02:16.745Z,91.67
2018-01-28T21:04:44.317Z,91.40
2018-01-28T21:07:11.837Z,91.72
2018-01-28T21:09:39.404Z,92.08
2018-01-28T21:12:06.990Z,91.68
2018-01-28T21:14:34.553Z,92.08
2018-01-28T21:17:02.109Z,92.39
2018-01-28T21:19:29.645Z,92.24
2018-01-28T21:21:57.165Z,92.21
2018-01-28T21:24:24.682Z,92.03
2018-01-28T21:26:52.208Z,92.57
2018-01-28T21:29:19.768Z,92.54
2018-01-28T21:31:47.308Z,92.69
2018-01-28T21:34:14.821Z,92.77
2018-01-28T21:36:42.382Z,93.00
2018-01-28T21:39:09.896Z,93.02
2018-01-28T21:41:37.426Z,93.25
2018-01-28T21:44:04.956Z,93.04
2018-01-28T21:46:32.475Z,93.00
2018-01-28T21:49:00.011Z,93.38
2018-01-28T21:51:27.545Z,93.05
2018-01-28T21:53:55.061Z,93.29
2018-01-28T21:56:22.615Z,93.46
2018-01-28T21:58:50.170Z,93.35
2018-01-28T22:01:17.698Z,93.95
2018-01-28T22:03:45.228Z,93.36
2018-01-28T22:06:12.745Z,95.33
2018-01-28T22:08:40.277Z,93.94
2018-01-28T22:11:07.804Z,93.79
2018-01-28T22:13:35.326Z,93.90
2018-01-28T22:16:02.848Z,93.87
2018-01-28T22:18:30.463Z,93.87
2018-01-28T22:20:57.986Z,93.63
2018-01-28T22:23:25.514Z,94.03
2018-01-28T22:25:53.150Z,93.79
2018-01-28T22:28:20.706Z,93.70
2018-01-28T22:30:48.227Z,93.83
2018-01-28T22:33:15.736Z,93.93
2018-01-28T22:35:43.252Z,94.26
2018-01-28T22:38:10.825Z,93.87
2018-01-28T22:40:38.337Z,93.67
2018-01-28T22:43:05.892Z,94.13
2018-01-28T22:45:33.521Z,93.89
2018-01-28T22:48:01.168Z,94.03
2018-01-28T22:50:28.727Z,93.63
2018-01-28T22:52:56.390Z,94.00
2018-01-28T22:55:23.915Z,94.05
2018-01-28T22:57:51.498Z,93.83
2018-01-28T23:00:19.060Z,93.97
2018-01-28T23:02:46.576Z,94.05
2018-01-28T23:05:14.087Z,94.06
2018-01-28T23:07:41.664Z,93.84
2018-01-28T23:10:09.241Z,93.77
2018-01-28T23:12:36.757Z,93.58
2018-01-28T23:15:04.303Z,93.90
2018-01-28T23:17:31.826Z,94.09
2018-01-28T23:19:59.873Z,94.11
2018-01-28T23:22:27.397Z,93.96
2018-01-28T23:24:54.956Z,93.95
2018-01-28T23:27:22.479Z,93.85
2018-01-28T23:29:49.998Z,94.23
2018-01-28T23:32:17.511Z,94.06
2018-01-28T23:34:45.128Z,94.29
2018-01-28T23:37:12.653Z,94.17
2018-01-28T23:39:40.173Z,94.42
2018-01-28T23:42:07.685Z,94.40
2018-01-28T23:44:35.203Z,94.00
2018-01-28T23:47:02.724Z,94.47
2018-01-28T23:49:30.255Z,94.28
2018-01-28T23:51:57.857Z,94.31
2018-01-28T23:54:25.413Z,94.48
2018-01-28T23:56:52.929Z,94.48
2018-01-28T23:59:20.458Z,94.36
